createdAt,value
2019-02-26T08:45:09.225Z,9.40
2019-02-26T08:47:37.919Z,5.60
2019-02-26T08:50:10.119Z,12.30
2019-02-26T08:52:39.515Z,7.80
2019-02-26T08:55:12.911Z,9.80
2019-02-26T08:57:41.204Z,6.75
2019-02-26T09:00:15.616Z,11.12
2019-02-26T09:02:45.923Z,31.07
2019-02-26T09:05:14.832Z,17.30
2019-02-26T09:07:45.570Z,10.88
2019-02-26T09:10:17.561Z,7.33
2019-02-26T09:12:46.869Z,9.88
2019-02-26T09:15:18.068Z,11.73
2019-02-26T09:17:46.791Z,13.35
2019-02-26T09:20:17.792Z,7.97
2019-02-26T09:22:50.193Z,9.23
2019-02-26T09:25:16.802Z,11.33
2019-02-26T09:27:45.541Z,11.43
2019-02-26T09:30:16.320Z,15.15
2019-02-26T09:32:45.192Z,10.50
2019-02-26T09:35:20.330Z,12.73
2019-02-26T09:37:50.614Z,11.25
2019-02-26T09:40:23.511Z,7.90
2019-02-26T09:42:54.527Z,7.15
2019-02-26T09:45:28.551Z,14.50
2019-02-26T09:47:57.742Z,8.75
2019-02-26T09:50:25.904Z,11.30
2019-02-26T09:52:58.154Z,9.05
2019-02-26T09:55:24.956Z,8.43
2019-02-26T09:57:53.691Z,9.63
2019-02-26T10:00:26.096Z,9.05
2019-02-26T10:02:53.787Z,9.63
2019-02-26T10:05:22.481Z,6.80
2019-02-26T10:07:53.896Z,12.55
2019-02-26T10:10:22.785Z,10.20
2019-02-26T10:12:53.859Z,7.58
2019-02-26T10:15:21.862Z,6.70
2019-02-26T10:17:50.644Z,7.42
2019-02-26T10:20:24.830Z,5.12
2019-02-26T10:22:53.251Z,10.53
2019-02-26T10:25:23.250Z,9.95
2019-02-26T10:27:53.208Z,9.13
2019-02-26T10:30:22.969Z,7.62
2019-02-26T10:32:51.668Z,8.35
2019-02-26T10:35:32.492Z,12.47
2019-02-26T10:37:57.117Z,9.15
2019-02-26T10:40:34.785Z,15.65
2019-02-26T10:42:56.828Z,20.82
2019-02-26T10:45:29.564Z,23.80
2019-02-26T10:47:59.375Z,21.70
2019-02-26T10:50:31.708Z,15.78
2019-02-26T10:53:06.733Z,14.25
2019-02-26T10:55:33.902Z,14.50
2019-02-26T10:58:04.813Z,14.25
2019-02-26T11:00:34.740Z,14.30
2019-02-26T11:03:01.978Z,13.65
2019-02-26T11:05:30.679Z,18.15
2019-02-26T11:08:02.177Z,11.73
2019-02-26T11:10:29.784Z,8.83
2019-02-26T11:12:59.475Z,17.80
2019-02-26T11:15:31.052Z,13.75
2019-02-26T11:17:58.970Z,12.10
2019-02-26T11:20:30.602Z,20.17
2019-02-26T11:22:58.330Z,13.68
2019-02-26T11:25:27.575Z,20.23
2019-02-26T11:27:56.689Z,13.65
2019-02-26T11:30:31.969Z,18.87
2019-02-26T11:33:02.509Z,12.23
2019-02-26T11:35:29.783Z,11.43
2019-02-26T11:37:58.538Z,10.68
2019-02-26T11:40:30.529Z,19.87
2019-02-26T11:43:00.075Z,11.43
2019-02-26T11:45:28.537Z,11.75
2019-02-26T11:47:58.093Z,13.58
2019-02-26T11:50:28.505Z,10.45
2019-02-26T11:52:57.714Z,11.15
2019-02-26T11:55:29.203Z,11.40
2019-02-26T11:57:56.737Z,15.40
2019-02-26T12:00:39.175Z,10.88
2019-02-26T12:03:06.619Z,14.40
2019-02-26T12:05:36.685Z,13.40
2019-02-26T12:08:06.173Z,11.55
2019-02-26T12:10:37.197Z,11.70
2019-02-26T12:13:05.428Z,11.95
2019-02-26T12:15:36.316Z,11.12
2019-02-26T12:18:04.767Z,8.25
2019-02-26T12:20:35.469Z,10.40
2019-02-26T12:23:03.787Z,12.33
2019-02-26T12:25:32.551Z,10.23
2019-02-26T12:28:02.864Z,10.78
2019-02-26T12:30:32.361Z,16.55
2019-02-26T12:33:02.027Z,10.13
2019-02-26T12:35:33.468Z,9.65
2019-02-26T12:38:17.338Z,9.90
2019-02-26T12:40:31.994Z,10.68
2019-02-26T12:43:02.011Z,10.40
2019-02-26T12:45:31.843Z,9.95
2019-02-26T12:48:01.397Z,9.63
2019-02-26T12:50:32.987Z,11.48
2019-02-26T12:53:00.504Z,10.30
2019-02-26T12:55:31.850Z,8.33
2019-02-26T12:57:59.678Z,9.03
2019-02-26T13:00:28.711Z,10.30
2019-02-26T13:02:58.667Z,10.65
2019-02-26T13:05:27.411Z,8.73
2019-02-26T13:07:56.134Z,9.73
2019-02-26T13:10:25.849Z,11.95
2019-02-26T13:12:59.282Z,9.63
2019-02-26T13:15:24.952Z,10.48
2019-02-26T13:17:55.199Z,14.10
2019-02-26T13:20:27.104Z,9.50
2019-02-26T13:25:28.021Z,12.93
2019-02-26T13:27:56.755Z,8.88
2019-02-26T13:30:27.846Z,12.60
2019-02-26T13:35:26.939Z,7.08
2019-02-26T13:37:57.741Z,13.28
2019-02-26T13:40:26.584Z,7.45
2019-02-26T13:45:26.813Z,14.50
2019-02-26T13:48:00.995Z,8.60
2019-02-26T13:50:32.479Z,13.00
2019-02-26T13:53:01.426Z,9.83
2019-02-26T13:55:30.122Z,10.70
2019-02-26T13:57:58.837Z,8.60
2019-02-26T14:00:28.916Z,12.33
2019-02-26T14:02:57.616Z,11.00
2019-02-26T14:05:26.302Z,13.03
2019-02-26T14:07:55.079Z,14.45
2019-02-26T14:10:24.789Z,9.93
2019-02-26T14:12:53.795Z,12.50
2019-02-26T14:15:27.089Z,11.70
2019-02-26T14:17:55.784Z,10.75
2019-02-26T14:20:24.550Z,11.20
2019-02-26T14:22:53.243Z,9.65
2019-02-26T14:25:21.930Z,11.65
2019-02-26T14:27:56.062Z,8.90
2019-02-26T14:30:24.767Z,13.60
2019-02-26T14:32:53.704Z,12.98
2019-02-26T14:35:22.519Z,16.45
2019-02-26T14:37:51.204Z,12.00
2019-02-26T14:40:21.666Z,11.65
2019-02-26T14:42:50.815Z,9.15
2019-02-26T14:45:27.272Z,13.15
2019-02-26T14:47:55.972Z,13.08
2019-02-26T14:50:26.336Z,10.18
2019-02-26T14:52:55.523Z,9.68
2019-02-26T14:55:24.217Z,9.28
2019-02-26T14:57:53.004Z,8.80
2019-02-26T15:00:24.612Z,14.95
2019-02-26T15:02:53.364Z,9.30
2019-02-26T15:05:22.102Z,15.60
2019-02-26T15:07:50.792Z,20.30
2019-02-26T15:10:20.537Z,15.35
2019-02-26T15:12:49.492Z,12.70
2019-02-26T15:15:19.250Z,11.45
2019-02-26T15:17:47.955Z,16.57
2019-02-26T15:20:18.588Z,13.78
2019-02-26T15:22:47.524Z,12.93
2019-02-26T15:25:24.759Z,11.45
2019-02-26T15:27:53.836Z,19.23
2019-02-26T15:30:24.132Z,12.93
2019-02-26T15:32:52.880Z,12.45
2019-02-26T15:35:21.585Z,15.13
2019-02-26T15:37:50.307Z,14.83
2019-02-26T15:40:23.085Z,16.48
2019-02-26T15:42:53.066Z,13.00
2019-02-26T15:45:32.152Z,10.85
2019-02-26T15:48:03.745Z,9.30
2019-02-26T15:50:31.260Z,13.60
2019-02-26T15:53:00.204Z,7.40
2019-02-26T15:55:32.457Z,7.00
2019-02-26T15:58:04.405Z,5.62
2019-02-26T16:00:44.499Z,9.58
2019-02-26T16:03:13.177Z,10.35
2019-02-26T16:05:41.914Z,7.50
2019-02-26T16:08:10.606Z,8.28
2019-02-26T16:10:39.316Z,8.83
2019-02-26T16:13:08.046Z,9.03
2019-02-26T16:15:38.760Z,8.48
2019-02-26T16:18:07.454Z,12.53
2019-02-26T16:20:39.146Z,7.03
2019-02-26T16:23:07.906Z,11.00
2019-02-26T16:25:36.690Z,14.10
2019-02-26T16:28:05.575Z,11.48
2019-02-26T16:30:34.257Z,9.63
2019-02-26T16:33:03.009Z,14.93
2019-02-26T16:35:31.707Z,11.73
2019-02-26T16:38:00.418Z,10.72
2019-02-26T16:40:32.316Z,13.13
2019-02-26T16:42:59.601Z,11.65
2019-02-26T16:45:28.913Z,11.68
2019-02-26T16:47:57.634Z,18.27
2019-02-26T16:50:29.108Z,18.95
2019-02-26T16:53:00.050Z,14.70
2019-02-26T16:55:28.196Z,9.25
2019-02-26T16:57:56.934Z,17.60
2019-02-26T17:00:30.184Z,12.65
2019-02-26T17:03:00.767Z,16.25
2019-02-26T17:05:29.408Z,6.92
2019-02-26T17:07:58.447Z,19.55
2019-02-26T17:10:30.306Z,10.78
2019-02-26T17:13:01.903Z,11.33
2019-02-26T17:15:35.853Z,14.83
2019-02-26T17:18:04.592Z,9.83
2019-02-26T17:20:33.272Z,12.07
2019-02-26T17:23:02.116Z,12.25
2019-02-26T17:25:30.824Z,20.05
2019-02-26T17:27:59.595Z,9.15
2019-02-26T17:30:28.340Z,13.35
2019-02-26T17:32:57.012Z,11.22
2019-02-26T17:35:28.727Z,9.25
2019-02-26T17:37:56.104Z,10.23
2019-02-26T17:40:27.084Z,18.00
2019-02-26T17:42:55.820Z,23.47
2019-02-26T17:45:29.930Z,11.10
2019-02-26T17:47:58.625Z,16.55
2019-02-26T17:50:30.435Z,12.37
2019-02-26T17:52:59.157Z,12.03
2019-02-26T17:55:28.369Z,11.10
2019-02-26T17:57:57.114Z,11.03
2019-02-26T18:00:28.172Z,17.40
2019-02-26T18:02:56.872Z,15.32
2019-02-26T18:05:25.619Z,12.13
2019-02-26T18:07:54.363Z,18.60
2019-02-26T18:10:25.435Z,19.65
2019-02-26T18:12:54.206Z,26.12
2019-02-26T18:15:22.905Z,17.12
2019-02-26T18:17:52.475Z,28.45
2019-02-26T18:20:22.860Z,20.50
2019-02-26T18:22:51.577Z,17.37
2019-02-26T18:25:24.674Z,12.30
2019-02-26T18:27:55.247Z,24.57
2019-02-26T18:30:25.674Z,25.77
2019-02-26T18:32:57.399Z,32.15
2019-02-26T18:35:24.813Z,30.68
2019-02-26T18:37:53.535Z,28.00
2019-02-26T18:40:22.427Z,31.05
2019-02-26T18:42:51.113Z,33.70
2019-02-26T18:45:30.270Z,25.17
2019-02-26T18:47:58.989Z,29.95
2019-02-26T18:50:29.537Z,26.77
2019-02-26T18:52:58.681Z,35.28
2019-02-26T18:55:32.468Z,30.85
2019-02-26T18:57:59.896Z,35.17
2019-02-26T19:00:35.378Z,25.75
2019-02-26T19:03:04.136Z,19.57
2019-02-26T19:05:32.836Z,17.98
2019-02-26T19:08:05.596Z,23.35
2019-02-26T19:10:32.160Z,22.80
2019-02-26T19:13:03.220Z,27.37
2019-02-26T19:15:34.960Z,16.82
2019-02-26T19:18:03.686Z,17.70
2019-02-26T19:20:37.644Z,26.85
2019-02-26T19:23:06.401Z,24.87
2019-02-26T19:25:35.198Z,29.92
2019-02-26T19:28:04.319Z,24.82
2019-02-26T19:30:36.727Z,31.05
2019-02-26T19:33:04.178Z,28.32
2019-02-26T19:35:38.187Z,22.67
2019-02-26T19:38:05.130Z,19.50
2019-02-26T19:40:40.070Z,20.10
2019-02-26T19:43:08.803Z,30.37
2019-02-26T19:45:37.536Z,24.98
2019-02-26T19:48:06.308Z,19.67
2019-02-26T19:50:35.431Z,23.70
2019-02-26T19:53:04.176Z,29.02
2019-02-26T19:55:35.774Z,18.73
2019-02-26T19:58:06.692Z,28.52
2019-02-26T20:00:35.015Z,33.05
2019-02-26T20:03:05.517Z,21.50
2019-02-26T20:05:34.047Z,29.90
2019-02-26T20:08:05.332Z,22.10
2019-02-26T20:10:33.213Z,20.88
2019-02-26T20:13:03.901Z,21.07
2019-02-26T20:15:34.087Z,29.45
2019-02-26T20:18:04.625Z,26.77
2019-02-26T20:20:41.075Z,29.82
2019-02-26T20:23:09.785Z,34.78
2019-02-26T20:25:42.545Z,33.30
2019-02-26T20:28:08.894Z,20.95
2019-02-26T20:30:37.703Z,21.37
2019-02-26T20:33:06.404Z,21.05
2019-02-26T20:35:35.108Z,37.40
2019-02-26T20:38:04.086Z,28.17
2019-02-26T20:40:32.993Z,24.95
2019-02-26T20:43:03.564Z,28.95
2019-02-26T20:45:32.366Z,32.42
2019-02-26T20:48:03.882Z,22.10
2019-02-26T20:50:31.466Z,30.90
2019-02-26T20:53:00.227Z,31.50
2019-02-26T20:55:33.744Z,26.15
2019-02-26T20:58:02.648Z,27.17
2019-02-26T21:00:32.514Z,30.40
2019-02-26T21:03:01.364Z,24.50
2019-02-26T21:05:32.251Z,37.55
2019-02-26T21:08:01.029Z,35.90
2019-02-26T21:10:29.748Z,29.10
2019-02-26T21:13:01.642Z,22.48
2019-02-26T21:15:28.939Z,35.13
2019-02-26T21:17:58.595Z,42.55
2019-02-26T21:20:27.864Z,43.95
2019-02-26T21:22:56.618Z,25.50
2019-02-26T21:25:25.448Z,36.60
2019-02-26T21:27:55.345Z,33.58
2019-02-26T21:30:25.440Z,27.20
2019-02-26T21:32:57.795Z,42.43
2019-02-26T21:35:24.551Z,35.13
2019-02-26T21:37:53.267Z,31.25
2019-02-26T21:40:22.103Z,19.23
2019-02-26T21:42:50.896Z,33.58
2019-02-26T21:45:19.675Z,29.77
2019-02-26T21:47:48.361Z,27.93
2019-02-26T21:50:17.256Z,23.75
2019-02-26T21:52:59.303Z,28.45
2019-02-26T21:55:16.559Z,32.90
2019-02-26T21:57:45.350Z,19.40
2019-02-26T22:00:20.809Z,22.50
2019-02-26T22:02:51.936Z,19.90
2019-02-26T22:05:19.895Z,23.30
2019-02-26T22:07:52.002Z,23.60
2019-02-26T22:10:21.952Z,22.73
2019-02-26T22:12:56.633Z,28.07
2019-02-26T22:15:23.431Z,22.13
2019-02-26T22:17:52.143Z,23.52
2019-02-26T22:20:35.207Z,19.85
2019-02-26T22:22:52.426Z,18.82
2019-02-26T22:25:21.124Z,17.77
2019-02-26T22:27:49.820Z,15.72
2019-02-26T22:30:22.048Z,19.57
2019-02-26T22:32:49.743Z,17.23
2019-02-26T22:35:18.436Z,15.10
2019-02-26T22:37:47.128Z,30.50
2019-02-26T22:40:16.026Z,24.05
2019-02-26T22:42:44.767Z,19.73
2019-02-26T22:45:14.858Z,33.60
2019-02-26T22:47:44.639Z,17.32
2019-02-26T22:50:16.816Z,19.42
2019-02-26T22:52:45.573Z,18.32
2019-02-26T22:55:17.596Z,19.15
2019-02-26T22:57:46.590Z,14.98
2019-02-26T23:00:48.410Z,26.17
2019-02-26T23:03:14.336Z,17.40
2019-02-26T23:05:43.028Z,18.42
2019-02-26T23:08:12.675Z,17.35
2019-02-26T23:10:41.732Z,24.37
2019-02-26T23:13:10.447Z,16.60
2019-02-26T23:15:45.878Z,21.27
2019-02-26T23:18:13.835Z,19.50
2019-02-26T23:20:43.389Z,13.58
2019-02-26T23:23:12.430Z,13.60
2019-02-26T23:25:42.027Z,29.27
2019-02-26T23:28:11.985Z,18.85
2019-02-26T23:30:41.591Z,17.87
2019-02-26T23:33:10.378Z,15.13
2019-02-26T23:35:39.230Z,17.07
2019-02-26T23:38:08.485Z,14.53
2019-02-26T23:40:39.359Z,20.55
2019-02-26T23:43:11.803Z,20.05
2019-02-26T23:45:38.934Z,27.48
2019-02-26T23:48:08.844Z,26.02
2019-02-26T23:50:38.144Z,13.43
2019-02-26T23:53:07.451Z,18.32
2019-02-26T23:55:36.453Z,20.68
2019-02-26T23:58:05.564Z,15.20
